Akureyri, Iceland

1:42 PM GMT on April 25, 2017 (GMT +0000)
Akureyri | | Change Station

Elev 75 ft 65.68 °N, 18.08 °W | Updated 42 minutes ago

Mostly Cloudy
Mostly Cloudy
45 °F
Feels Like 36 °F
N
22
Wind Variable Wind from SSW

Today
High -- | Low -- °F
--% Chance of Precip.
Yesterday
High -- | Low -- °F
Precip. -- in
Pressure 30.24 in
Visibility 6.2 miles
Clouds Mostly Cloudy 5000 ft
Windchill 36 °F
Dew Point 28 °F
Humidity 53%
Rainfall 0.00 in
Snow Depth Not available.
4:54 AM 9:28 PM
Waning Crescent, 1% visible
METAR BIAR 251300Z 20019KT 9999 BKN050 07/M02 Q1024
Pressure 30.24 in
Visibility 6.2 miles
Clouds Mostly Cloudy 5000 ft
Windchill 36 °F
Dew Point 28 °F
Humidity 53%
Rainfall 0.00 in
Snow Depth Not available.
4:54 AM 9:28 PM
Waning Crescent, 1% visible
METAR BIAR 251300Z 20019KT 9999 BKN050 07/M02 Q1024

Get Severe Weather Alerts

Thanks for signing up!

Be on the lookout for a verification email in your inbox.

You'll start receiving the daily forecast at 8 AM.

×

10-Day Weather Forecast

×

Almanac

Astronomy

Apr. 25, 2017 Rise Set
Actual Time
Civil Twilight
Nautical Twilight
Astronomical Twilight
Moon
Length of Visible Light
Length of Day
Tomorrow will be .
, % of the Moon is Illuminated

Today's Extremes

Country Highs Country Lows

Community

WunderPhotos

WunderBlog® & News

Nearby

Air Quality

  Air Quality AQ Index Pollutant
Not available.

Snow Depth

Station Depth Elevation

Earthquake Activity

City Distance Mag. Time & Date
Minimum magnitude displayed is 2.5.

Coastal Water Temperatures

Place Temperature

Stations

Nearby Weather Stations

Station Location Temp. Windchill Dew Point Humidity Wind Precip. Elev Updated Type